createdAt,value
2018-05-01T00:01:38.446Z,12.50
2018-05-01T00:04:05.999Z,12.43
2018-05-01T00:06:33.889Z,12.45
2018-05-01T00:09:01.444Z,12.45
2018-05-01T00:11:28.975Z,12.51
2018-05-01T00:13:56.513Z,12.47
2018-05-01T00:16:24.072Z,12.43
2018-05-01T00:18:51.805Z,12.48
2018-05-01T00:21:19.368Z,12.48
2018-05-01T00:23:47.068Z,12.46
2018-05-01T00:26:14.611Z,12.39
2018-05-01T00:28:42.201Z,12.43
2018-05-01T00:31:09.978Z,12.25
2018-05-01T00:33:37.618Z,12.20
2018-05-01T00:36:05.243Z,12.25
2018-05-01T00:38:32.854Z,11.96
2018-05-01T00:41:00.605Z,12.08
2018-05-01T00:43:28.641Z,12.12
2018-05-01T00:45:56.179Z,11.99
2018-05-01T00:48:23.873Z,12.12
2018-05-01T00:50:51.514Z,12.17
2018-05-01T00:53:19.249Z,12.10
2018-05-01T00:55:47.459Z,12.14
2018-05-01T00:58:15.141Z,12.09
2018-05-01T01:00:42.688Z,12.12
2018-05-01T01:03:10.229Z,12.09
2018-05-01T01:05:37.771Z,11.67
2018-05-01T01:08:05.291Z,11.56
2018-05-01T01:10:32.810Z,11.54
2018-05-01T01:13:00.330Z,11.51
2018-05-01T01:15:27.920Z,11.54
2018-05-01T01:17:55.548Z,11.58
2018-05-01T01:20:23.198Z,11.68
2018-05-01T01:22:51.065Z,11.49
2018-05-01T01:25:18.931Z,11.30
2018-05-01T01:27:46.638Z,11.13
2018-05-01T01:30:14.180Z,11.13
2018-05-01T01:32:42.398Z,11.25
2018-05-01T01:35:09.628Z,11.07
2018-05-01T01:37:36.635Z,11.07
2018-05-01T01:40:03.632Z,11.02
2018-05-01T01:42:30.636Z,11.12
2018-05-01T01:44:57.639Z,11.22
2018-05-01T01:47:24.741Z,11.20
2018-05-01T01:49:51.767Z,11.30
2018-05-01T01:52:18.749Z,11.22
2018-05-01T01:54:45.734Z,10.88
2018-05-01T01:57:12.807Z,10.81
2018-05-01T01:59:39.860Z,10.93
2018-05-01T02:02:06.876Z,10.84
2018-05-01T02:04:34.080Z,10.80
2018-05-01T02:07:01.350Z,10.96
2018-05-01T02:09:28.470Z,11.02
2018-05-01T02:11:55.550Z,11.07
2018-05-01T02:14:22.536Z,11.10
2018-05-01T02:16:49.509Z,11.18
2018-05-01T02:19:16.463Z,11.24
2018-05-01T02:21:43.514Z,11.30
2018-05-01T02:24:10.495Z,11.35
2018-05-01T02:26:37.730Z,11.33
2018-05-01T02:29:04.711Z,11.33
2018-05-01T02:31:31.720Z,11.32
2018-05-01T02:33:58.701Z,11.32
2018-05-01T02:36:25.745Z,11.33
2018-05-01T02:38:52.990Z,11.35
2018-05-01T02:41:20.021Z,11.28
2018-05-01T02:43:46.967Z,11.28
2018-05-01T02:46:13.950Z,11.29
2018-05-01T02:48:40.966Z,11.33
2018-05-01T02:51:07.975Z,11.36
2018-05-01T02:53:35.165Z,11.35
2018-05-01T02:56:02.176Z,11.26
2018-05-01T02:58:29.422Z,11.21
2018-05-01T03:00:56.542Z,11.10
2018-05-01T03:03:23.521Z,10.86
2018-05-01T03:05:50.594Z,10.65
2018-05-01T03:08:17.782Z,10.73
2018-05-01T03:10:44.836Z,10.61
2018-05-01T03:13:11.844Z,10.55
2018-05-01T03:15:38.985Z,10.57
2018-05-01T03:18:06.000Z,10.49
2018-05-01T03:20:33.695Z,10.54
2018-05-01T03:23:00.749Z,10.63
2018-05-01T03:25:27.937Z,10.68
2018-05-01T03:27:54.985Z,10.71
2018-05-01T03:30:21.996Z,10.72
2018-05-01T03:32:50.366Z,10.74
2018-05-01T03:35:17.359Z,10.74
2018-05-01T03:37:44.459Z,10.81
2018-05-01T03:40:11.485Z,10.79
2018-05-01T03:42:38.500Z,10.82
2018-05-01T03:45:05.966Z,10.89
2018-05-01T03:47:32.986Z,10.86
2018-05-01T03:50:00.034Z,10.83
2018-05-01T03:52:27.039Z,10.82
2018-05-01T03:54:54.199Z,10.85
2018-05-01T03:57:21.283Z,10.77
2018-05-01T03:59:48.251Z,10.74
2018-05-01T04:02:15.286Z,10.70
2018-05-01T04:04:42.286Z,10.66
2018-05-01T04:07:09.490Z,10.72
2018-05-01T04:09:36.476Z,10.71
2018-05-01T04:12:03.736Z,10.57
2018-05-01T04:14:30.725Z,10.58
2018-05-01T04:16:57.811Z,10.62
2018-05-01T04:19:24.798Z,10.66
2018-05-01T04:21:51.925Z,10.69
2018-05-01T04:24:18.904Z,10.67
2018-05-01T04:26:45.886Z,10.73
2018-05-01T04:29:13.266Z,10.75
2018-05-01T04:31:40.462Z,10.75
2018-05-01T04:34:07.614Z,10.67
2018-05-01T04:36:35.739Z,10.78
2018-05-01T04:39:02.928Z,10.79
2018-05-01T04:41:30.164Z,10.64
2018-05-01T04:43:57.160Z,10.69
2018-05-01T04:46:24.151Z,10.73
2018-05-01T04:48:51.333Z,10.77
2018-05-01T04:51:18.347Z,10.77
2018-05-01T04:53:45.350Z,10.71
2018-05-01T04:56:12.343Z,10.79
2018-05-01T04:58:39.479Z,10.80
2018-05-01T05:01:06.654Z,10.88
2018-05-01T05:03:34.119Z,10.90
2018-05-01T05:06:01.443Z,10.90
2018-05-01T05:08:28.535Z,10.99
2018-05-01T05:10:55.996Z,10.93
2018-05-01T05:13:23.422Z,10.94
2018-05-01T05:15:50.614Z,10.89
2018-05-01T05:18:17.616Z,10.83
2018-05-01T05:20:44.679Z,10.86
2018-05-01T05:23:11.816Z,10.88
2018-05-01T05:25:38.851Z,10.90
2018-05-01T05:28:05.826Z,10.95
2018-05-01T05:30:33.039Z,10.97
2018-05-01T05:33:00.011Z,10.93
2018-05-01T05:35:27.035Z,10.92
2018-05-01T05:37:54.016Z,10.84
2018-05-01T05:40:21.092Z,10.86
2018-05-01T05:42:48.198Z,10.90
2018-05-01T05:45:15.116Z,10.79
2018-05-01T05:47:42.114Z,10.84
2018-05-01T05:50:09.126Z,10.88
2018-05-01T05:52:36.201Z,10.88
2018-05-01T05:55:03.220Z,10.94
2018-05-01T05:57:30.212Z,10.97
2018-05-01T05:59:57.404Z,10.82
2018-05-01T06:02:24.589Z,10.78
2018-05-01T06:04:51.570Z,10.76
2018-05-01T06:07:18.581Z,10.69
2018-05-01T06:09:45.591Z,10.65
2018-05-01T06:12:12.611Z,10.60
2018-05-01T06:14:39.632Z,10.61
2018-05-01T06:17:06.697Z,10.54
2018-05-01T06:19:33.691Z,10.38
2018-05-01T06:22:00.761Z,10.40
2018-05-01T06:24:27.815Z,10.38
2018-05-01T06:26:54.969Z,10.46
2018-05-01T06:29:21.967Z,10.43
2018-05-01T06:31:48.967Z,10.68
2018-05-01T06:34:16.930Z,10.75
2018-05-01T06:36:43.932Z,10.89
2018-05-01T06:39:11.007Z,10.83
2018-05-01T06:41:38.046Z,10.98
2018-05-01T06:44:05.099Z,11.08
2018-05-01T06:46:32.954Z,11.11
2018-05-01T06:48:59.947Z,11.13
2018-05-01T06:51:26.986Z,11.18
2018-05-01T06:53:54.065Z,11.20
2018-05-01T06:56:21.066Z,11.08
2018-05-01T06:58:48.064Z,10.99
2018-05-01T07:01:15.073Z,10.83
2018-05-01T07:03:42.092Z,10.82
2018-05-01T07:06:09.073Z,10.87
2018-05-01T07:08:36.221Z,10.79
2018-05-01T07:11:03.221Z,10.84
2018-05-01T07:13:30.924Z,10.61
2018-05-01T07:15:58.162Z,10.64
2018-05-01T07:18:25.223Z,10.56
2018-05-01T07:20:52.525Z,10.61
2018-05-01T07:23:19.621Z,10.56
2018-05-01T07:25:46.620Z,10.56
2018-05-01T07:28:13.621Z,10.67
2018-05-01T07:30:40.652Z,10.71
2018-05-01T07:33:07.642Z,10.59
2018-05-01T07:35:34.860Z,10.55
2018-05-01T07:38:02.042Z,10.64
2018-05-01T07:40:29.055Z,10.69
2018-05-01T07:42:56.365Z,10.71
2018-05-01T07:45:23.405Z,10.76
2018-05-01T07:47:50.421Z,10.79
2018-05-01T07:50:17.421Z,10.67
2018-05-01T07:52:45.355Z,10.63
2018-05-01T07:55:12.515Z,10.61
2018-05-01T07:57:40.145Z,10.63
2018-05-01T08:00:07.182Z,10.72
2018-05-01T08:02:34.191Z,10.60
2018-05-01T08:05:01.246Z,10.45
2018-05-01T08:07:28.627Z,10.26
2018-05-01T08:09:55.665Z,10.18
2018-05-01T08:12:22.722Z,10.22
2018-05-01T08:14:49.746Z,10.38
2018-05-01T08:17:16.732Z,10.50
2018-05-01T08:19:43.942Z,10.82
2018-05-01T08:22:11.113Z,10.92
2018-05-01T08:24:38.352Z,11.03
2018-05-01T08:27:05.497Z,11.19
2018-05-01T08:29:32.583Z,11.38
2018-05-01T08:31:59.729Z,11.74
2018-05-01T08:34:27.130Z,12.17
2018-05-01T08:36:54.213Z,12.29
2018-05-01T08:39:21.218Z,12.37
2018-05-01T08:41:48.310Z,12.37
2018-05-01T08:44:15.386Z,12.34
2018-05-01T08:46:42.536Z,12.23
2018-05-01T08:49:10.008Z,11.95
2018-05-01T08:51:37.011Z,11.61
2018-05-01T08:54:04.294Z,11.72
2018-05-01T08:56:31.441Z,12.05
2018-05-01T08:58:58.476Z,12.27
2018-05-01T09:01:25.625Z,12.31
2018-05-01T09:03:52.770Z,12.30
2018-05-01T09:06:19.908Z,12.29
2018-05-01T09:08:47.007Z,12.09
2018-05-01T09:11:14.431Z,12.21
2018-05-01T09:13:41.565Z,12.40
2018-05-01T09:16:08.652Z,12.71
2018-05-01T09:18:35.661Z,13.04
2018-05-01T09:21:03.065Z,12.83
2018-05-01T09:23:30.166Z,12.98
2018-05-01T09:25:57.211Z,13.12
2018-05-01T09:28:24.373Z,12.94
2018-05-01T09:30:51.425Z,13.25
2018-05-01T09:33:18.491Z,13.74
2018-05-01T09:35:45.631Z,14.40
2018-05-01T09:38:12.756Z,14.90
2018-05-01T09:40:39.750Z,14.80
2018-05-01T09:43:06.912Z,14.88
2018-05-01T09:45:34.211Z,15.34
2018-05-01T09:48:01.415Z,15.20
2018-05-01T09:50:28.843Z,14.79
2018-05-01T09:52:56.436Z,14.84
2018-05-01T09:55:23.972Z,15.73
2018-05-01T09:57:51.597Z,16.23
2018-05-01T10:00:24.733Z,16.81
2018-05-01T10:02:52.273Z,16.55
2018-05-01T10:05:19.935Z,15.78
2018-05-01T10:07:50.397Z,15.84
2018-05-01T10:10:18.207Z,16.44
2018-05-01T10:12:45.881Z,16.13
2018-05-01T10:15:13.578Z,16.75
2018-05-01T10:17:41.207Z,17.38
2018-05-01T10:20:08.826Z,17.80
2018-05-01T10:22:36.398Z,18.50
2018-05-01T10:25:04.068Z,18.68
2018-05-01T10:27:31.783Z,18.62
2018-05-01T10:30:00.354Z,18.64
2018-05-01T10:32:28.282Z,19.66
2018-05-01T10:34:55.833Z,19.15
2018-05-01T10:37:23.608Z,18.66
2018-05-01T10:39:51.310Z,19.50
2018-05-01T10:42:19.137Z,19.83
2018-05-01T10:44:46.780Z,19.13
2018-05-01T10:47:14.916Z,19.40
2018-05-01T10:49:42.562Z,19.35
2018-05-01T10:52:10.227Z,19.61
2018-05-01T10:54:38.056Z,19.25
2018-05-01T10:57:05.707Z,18.70
2018-05-01T10:59:33.347Z,20.43
2018-05-01T11:02:01.168Z,21.68
2018-05-01T11:04:28.818Z,21.19
2018-05-01T11:06:56.426Z,20.32
2018-05-01T11:09:24.057Z,19.58
2018-05-01T11:11:51.689Z,19.05
2018-05-01T11:14:19.278Z,18.67
2018-05-01T11:16:48.032Z,18.66
2018-05-01T11:19:16.017Z,18.44
2018-05-01T11:21:45.054Z,17.86
2018-05-01T11:24:12.871Z,17.97
2018-05-01T11:26:40.615Z,17.51
2018-05-01T11:29:08.361Z,18.31
2018-05-01T11:31:35.940Z,18.12
2018-05-01T11:34:03.809Z,17.31
2018-05-01T11:36:31.612Z,17.42
2018-05-01T11:38:59.353Z,17.79
2018-05-01T11:41:26.975Z,18.01
2018-05-01T11:43:54.530Z,19.14
2018-05-01T11:46:22.218Z,20.28
2018-05-01T11:48:49.763Z,20.32
2018-05-01T11:51:18.634Z,20.23
2018-05-01T11:53:46.496Z,18.98
2018-05-01T11:56:14.077Z,18.84
2018-05-01T11:58:41.612Z,19.91
2018-05-01T12:01:09.273Z,20.29
2018-05-01T12:03:37.002Z,20.07
2018-05-01T12:06:05.042Z,19.76
2018-05-01T12:08:32.693Z,20.13
2018-05-01T12:11:00.273Z,19.81
2018-05-01T12:13:28.002Z,19.60
2018-05-01T12:15:55.602Z,19.70
2018-05-01T12:18:23.543Z,19.46
2018-05-01T12:20:51.339Z,21.37
2018-05-01T12:23:18.867Z,23.36
2018-05-01T12:25:46.499Z,23.40
2018-05-01T12:28:14.066Z,21.42
2018-05-01T12:30:41.895Z,20.91
2018-05-01T12:33:10.032Z,19.98
2018-05-01T12:35:37.554Z,19.31
2018-05-01T12:38:05.160Z,19.41
2018-05-01T12:40:32.888Z,20.52
2018-05-01T12:43:00.536Z,24.55
2018-05-01T12:45:28.370Z,27.61
2018-05-01T12:47:55.909Z,30.23
2018-05-01T12:50:23.509Z,29.04
2018-05-01T12:52:51.131Z,30.76
2018-05-01T12:55:18.687Z,31.49
2018-05-01T12:57:46.221Z,29.28
2018-05-01T13:00:13.927Z,30.10
2018-05-01T13:02:41.717Z,30.06
2018-05-01T13:05:09.559Z,28.81
2018-05-01T13:07:38.542Z,28.70
2018-05-01T13:10:06.152Z,28.47
2018-05-01T13:12:33.936Z,26.66
2018-05-01T13:15:01.547Z,24.86
2018-05-01T13:17:29.449Z,23.30
2018-05-01T13:19:57.317Z,21.72
2018-05-01T13:22:24.905Z,20.91
2018-05-01T13:24:52.504Z,20.98
2018-05-01T13:27:20.211Z,21.62
2018-05-01T13:29:47.928Z,24.69
2018-05-01T13:32:15.924Z,26.73
2018-05-01T13:34:43.674Z,26.96
2018-05-01T13:37:11.323Z,24.78
2018-05-01T13:39:39.207Z,25.58
2018-05-01T13:42:07.269Z,26.65
2018-05-01T13:44:34.922Z,27.52
2018-05-01T13:47:02.784Z,27.17
2018-05-01T13:49:31.704Z,26.50
2018-05-01T13:51:59.389Z,24.90
2018-05-01T13:54:27.160Z,23.68
2018-05-01T13:56:54.745Z,23.78
2018-05-01T13:59:22.419Z,23.70
2018-05-01T14:01:50.222Z,23.45
2018-05-01T14:04:17.875Z,22.30
2018-05-01T14:06:45.399Z,21.15
2018-05-01T14:09:13.055Z,20.80
2018-05-01T14:11:40.657Z,20.21
2018-05-01T14:14:08.213Z,19.95
2018-05-01T14:16:35.730Z,19.69
2018-05-01T14:19:03.464Z,18.93
2018-05-01T14:21:31.145Z,18.39
2018-05-01T14:23:58.714Z,18.36
2018-05-01T14:26:26.428Z,18.45
2018-05-01T14:28:54.421Z,18.78
2018-05-01T14:31:21.949Z,18.86
2018-05-01T14:33:49.594Z,18.79
2018-05-01T14:36:17.189Z,18.86
2018-05-01T14:38:44.728Z,19.15
2018-05-01T14:41:12.284Z,19.10
2018-05-01T14:43:39.898Z,18.95
2018-05-01T14:46:07.967Z,18.63
2018-05-01T14:48:35.533Z,18.30
2018-05-01T14:51:03.129Z,17.98
2018-05-01T14:53:30.806Z,17.45
2018-05-01T14:55:59.350Z,17.40
2018-05-01T14:58:27.234Z,17.11
2018-05-01T15:00:55.039Z,17.18
2018-05-01T15:03:22.720Z,17.37
2018-05-01T15:05:50.567Z,17.41
2018-05-01T15:08:18.230Z,17.43
2018-05-01T15:10:45.828Z,17.22
2018-05-01T15:13:13.525Z,17.51
2018-05-01T15:15:41.303Z,17.54
2018-05-01T15:18:08.869Z,17.77
2018-05-01T15:20:36.571Z,18.11
2018-05-01T15:23:04.156Z,18.48
2018-05-01T15:25:31.812Z,18.66
2018-05-01T15:27:59.325Z,18.53
2018-05-01T15:30:27.293Z,18.45
2018-05-01T15:32:55.230Z,18.13
2018-05-01T15:35:22.839Z,18.36
2018-05-01T15:37:50.649Z,18.22
2018-05-01T15:40:18.225Z,17.95
2018-05-01T15:42:45.789Z,18.04
2018-05-01T15:45:13.587Z,17.79
2018-05-01T15:47:41.110Z,17.56
2018-05-01T15:50:08.991Z,17.69
2018-05-01T15:52:36.641Z,17.51
2018-05-01T15:55:04.285Z,17.48
2018-05-01T15:57:32.005Z,17.37
2018-05-01T16:00:00.065Z,17.31
2018-05-01T16:02:27.604Z,17.42
2018-05-01T16:04:56.122Z,17.46
2018-05-01T16:07:23.874Z,17.51
2018-05-01T16:09:51.535Z,17.70
2018-05-01T16:12:19.136Z,17.75
2018-05-01T16:14:46.877Z,17.64
2018-05-01T16:17:14.421Z,17.68
2018-05-01T16:19:42.497Z,17.42
2018-05-01T16:22:10.442Z,17.41
2018-05-01T16:24:38.306Z,17.16
2018-05-01T16:27:06.267Z,16.79
2018-05-01T16:29:34.970Z,16.71
2018-05-01T16:32:03.270Z,16.54
2018-05-01T16:34:31.071Z,16.56
2018-05-01T16:36:58.625Z,16.56
2018-05-01T16:39:26.495Z,16.38
2018-05-01T16:41:54.417Z,16.30
2018-05-01T16:44:22.152Z,16.26
2018-05-01T16:46:49.841Z,16.18
2018-05-01T16:49:17.561Z,16.15
2018-05-01T16:51:45.107Z,15.98
2018-05-01T16:54:12.769Z,16.07
2018-05-01T16:56:40.340Z,16.06
2018-05-01T16:59:08.116Z,16.00
2018-05-01T17:01:36.038Z,15.89
2018-05-01T17:04:03.675Z,15.73
2018-05-01T17:06:31.270Z,15.80
2018-05-01T17:08:59.892Z,15.75
2018-05-01T17:11:28.051Z,15.72
2018-05-01T17:13:55.790Z,15.80
2018-05-01T17:16:23.406Z,15.80
2018-05-01T17:18:51.010Z,15.82
2018-05-01T17:21:19.694Z,15.81
2018-05-01T17:23:47.405Z,15.70
2018-05-01T17:26:14.936Z,15.64
2018-05-01T17:28:42.485Z,15.58
2018-05-01T17:31:10.185Z,15.43
2018-05-01T17:33:37.871Z,15.18
2018-05-01T17:36:05.442Z,15.01
2018-05-01T17:38:33.040Z,14.90
2018-05-01T17:41:00.577Z,14.74
2018-05-01T17:43:28.296Z,14.57
2018-05-01T17:45:56.960Z,14.31
2018-05-01T17:48:24.589Z,14.27
2018-05-01T17:50:52.119Z,14.14
2018-05-01T17:53:19.251Z,13.91
2018-05-01T17:55:46.399Z,13.84
2018-05-01T17:58:13.951Z,13.75
2018-05-01T18:00:41.260Z,13.71
2018-05-01T18:03:08.956Z,13.66
2018-05-01T18:05:36.087Z,13.62
2018-05-01T18:08:03.447Z,13.59
2018-05-01T18:10:30.617Z,13.39
2018-05-01T18:12:57.702Z,13.13
2018-05-01T18:15:25.010Z,13.26
2018-05-01T18:17:52.176Z,13.28
2018-05-01T18:20:19.302Z,13.06
2018-05-01T18:22:46.382Z,13.12
2018-05-01T18:25:13.635Z,13.18
2018-05-01T18:27:40.771Z,13.17
2018-05-01T18:30:07.970Z,13.02
2018-05-01T18:32:35.483Z,12.77
2018-05-01T18:35:03.477Z,12.65
2018-05-01T18:37:30.701Z,12.43
2018-05-01T18:39:57.806Z,12.41
2018-05-01T18:42:24.922Z,12.34
2018-05-01T18:44:52.190Z,11.81
2018-05-01T18:47:19.445Z,11.70
2018-05-01T18:49:46.649Z,11.69
2018-05-01T18:52:13.760Z,11.62
2018-05-01T18:54:40.952Z,11.61
2018-05-01T18:57:08.101Z,11.62
2018-05-01T18:59:35.228Z,11.49
2018-05-01T19:02:03.785Z,11.28
2018-05-01T19:04:31.945Z,11.20
2018-05-01T19:07:00.126Z,11.17
2018-05-01T19:09:28.180Z,11.10
2018-05-01T19:11:55.894Z,10.96
2018-05-01T19:14:23.551Z,10.98
2018-05-01T19:16:52.057Z,10.97
2018-05-01T19:19:20.007Z,10.81
2018-05-01T19:21:47.370Z,10.37
2018-05-01T19:24:14.737Z,10.36
2018-05-01T19:26:42.560Z,10.35
2018-05-01T19:29:09.882Z,10.32
2018-05-01T19:31:37.766Z,10.06
2018-05-01T19:34:05.765Z,9.97
2018-05-01T19:36:32.875Z,9.91
2018-05-01T19:39:00.097Z,9.94
2018-05-01T19:41:27.231Z,9.87
2018-05-01T19:43:55.171Z,9.87
2018-05-01T19:46:22.776Z,9.92
2018-05-01T19:48:50.149Z,9.89
2018-05-01T19:51:17.296Z,9.82
2018-05-01T19:53:44.430Z,9.76
2018-05-01T19:56:11.546Z,9.62
2018-05-01T19:58:38.949Z,9.56
2018-05-01T20:01:06.103Z,9.62
2018-05-01T20:03:33.312Z,9.65
2018-05-01T20:06:00.562Z,9.69
2018-05-01T20:08:27.846Z,9.70
2018-05-01T20:10:55.141Z,9.54
2018-05-01T20:13:22.551Z,9.29
2018-05-01T20:15:50.021Z,9.25
2018-05-01T20:18:17.328Z,9.29
2018-05-01T20:20:44.681Z,9.10
2018-05-01T20:23:11.967Z,9.01
2018-05-01T20:25:39.146Z,8.90
2018-05-01T20:28:06.456Z,8.88
2018-05-01T20:30:34.735Z,8.91
2018-05-01T20:33:02.624Z,8.89
2018-05-01T20:35:29.872Z,8.76
2018-05-01T20:37:57.017Z,8.59
2018-05-01T20:40:24.169Z,8.38
2018-05-01T20:42:51.309Z,8.27
2018-05-01T20:45:18.508Z,8.18
2018-05-01T20:47:45.588Z,8.09
2018-05-01T20:50:12.727Z,8.09
2018-05-01T20:52:39.902Z,8.07
2018-05-01T20:55:07.072Z,8.12
2018-05-01T20:57:34.422Z,8.11
2018-05-01T21:00:01.541Z,8.00
2018-05-01T21:02:28.626Z,7.73
2018-05-01T21:04:55.748Z,7.56
2018-05-01T21:07:22.864Z,7.50
2018-05-01T21:09:49.977Z,7.54
2018-05-01T21:12:17.296Z,7.52
2018-05-01T21:15:17.951Z,7.64
2018-05-01T21:17:45.118Z,7.67
2018-05-01T21:20:12.281Z,7.08
2018-05-01T21:22:39.521Z,6.91
2018-05-01T21:25:06.725Z,6.80
2018-05-01T21:27:33.791Z,6.83
2018-05-01T21:30:00.969Z,6.72
2018-05-01T21:32:28.061Z,6.71
2018-05-01T21:34:55.147Z,6.86
2018-05-01T21:37:22.241Z,6.93
2018-05-01T21:39:49.413Z,6.81
2018-05-01T21:42:16.607Z,6.68
2018-05-01T21:44:43.817Z,6.71
2018-05-01T21:47:10.995Z,6.60
2018-05-01T21:49:38.191Z,6.45
2018-05-01T21:52:05.723Z,6.26
2018-05-01T21:54:33.249Z,6.31
2018-05-01T21:57:00.303Z,6.51
2018-05-01T21:59:27.936Z,6.62
2018-05-01T22:01:55.523Z,6.34
2018-05-01T22:04:22.643Z,6.17
2018-05-01T22:06:50.407Z,6.04
2018-05-01T22:09:17.515Z,5.95
2018-05-01T22:11:44.666Z,5.94
2018-05-01T22:14:11.787Z,5.90
2018-05-01T22:16:39.130Z,5.82
2018-05-01T22:19:06.897Z,5.87
2018-05-01T22:21:34.527Z,5.81
2018-05-01T22:24:02.193Z,5.73
2018-05-01T22:26:29.862Z,5.63
2018-05-01T22:28:56.946Z,5.57
2018-05-01T22:31:24.666Z,5.49
2018-05-01T22:33:51.982Z,5.31
2018-05-01T22:36:19.317Z,5.27
2018-05-01T22:38:46.498Z,5.42
2018-05-01T22:41:13.637Z,5.68
2018-05-01T22:43:40.826Z,5.62
2018-05-01T22:46:08.487Z,5.70
2018-05-01T22:48:36.184Z,5.76
2018-05-01T22:51:03.811Z,5.83
2018-05-01T22:53:31.502Z,5.75
2018-05-01T22:55:58.612Z,5.77
2018-05-01T22:58:25.838Z,5.82
2018-05-01T23:00:52.903Z,5.78
2018-05-01T23:03:20.623Z,5.59
2018-05-01T23:05:47.919Z,5.51
2018-05-01T23:08:15.152Z,5.50
2018-05-01T23:10:42.224Z,5.51
2018-05-01T23:13:09.422Z,5.57
2018-05-01T23:15:36.487Z,5.50
2018-05-01T23:18:03.747Z,5.49
2018-05-01T23:20:30.816Z,5.52
2018-05-01T23:22:57.983Z,5.63
2018-05-01T23:25:25.146Z,5.57
2018-05-01T23:27:52.336Z,5.50
2018-05-01T23:30:19.539Z,5.30
2018-05-01T23:32:46.893Z,5.35
2018-05-01T23:35:14.461Z,5.25
2018-05-01T23:37:41.549Z,5.22
2018-05-01T23:40:08.701Z,5.19
2018-05-01T23:42:35.978Z,5.17
2018-05-01T23:45:03.120Z,5.23
2018-05-01T23:47:30.297Z,5.25
2018-05-01T23:49:57.402Z,5.38
2018-05-01T23:52:24.521Z,5.47
2018-05-01T23:54:51.774Z,5.39
2018-05-01T23:57:19.366Z,5.22
2018-05-01T23:59:47.022Z,5.22
